sensor_id;sensor_type;location;lat;lon;timestamp;temperature;humidity
24226;DHT22;51462;51.422;5.514;2023-10-13T00:01:49;17.30;99.90
24226;DHT22;51462;51.422;5.514;2023-10-13T00:04:17;17.40;99.90
24226;DHT22;51462;51.422;5.514;2023-10-13T00:06:47;17.40;99.90
24226;DHT22;51462;51.422;5.514;2023-10-13T00:09:12;17.40;99.90
24226;DHT22;51462;51.422;5.514;2023-10-13T00:11:43;17.40;99.90
24226;DHT22;51462;51.422;5.514;2023-10-13T00:14:13;17.40;99.90
24226;DHT22;51462;51.422;5.514;2023-10-13T00:16:44;17.40;99.90
24226;DHT22;51462;51.422;5.514;2023-10-13T00:19:37;17.40;99.90
24226;DHT22;51462;51.422;5.514;2023-10-13T00:22:08;17.40;99.90
24226;DHT22;51462;51.422;5.514;2023-10-13T00:24:39;17.40;99.90
24226;DHT22;51462;51.422;5.514;2023-10-13T00:27:20;17.40;99.90
24226;DHT22;51462;51.422;5.514;2023-10-13T00:30:01;17.40;99.90
24226;DHT22;51462;51.422;5.514;2023-10-13T00:32:47;17.30;99.90
24226;DHT22;51462;51.422;5.514;2023-10-13T00:35:19;17.40;99.90
24226;DHT22;51462;51.422;5.514;2023-10-13T00:37:51;17.30;99.90
24226;DHT22;51462;51.422;5.514;2023-10-13T00:40:19;17.30;99.90
24226;DHT22;51462;51.422;5.514;2023-10-13T00:42:58;17.30;99.90
24226;DHT22;51462;51.422;5.514;2023-10-13T00:45:45;17.40;99.90
24226;DHT22;51462;51.422;5.514;2023-10-13T00:48:24;17.40;99.90
24226;DHT22;51462;51.422;5.514;2023-10-13T00:50:59;17.40;99.90
24226;DHT22;51462;51.422;5.514;2023-10-13T00:53:32;17.40;99.90
24226;DHT22;51462;51.422;5.514;2023-10-13T00:56:05;17.40;99.90
24226;DHT22;51462;51.422;5.514;2023-10-13T00:58:33;17.40;99.90
24226;DHT22;51462;51.422;5.514;2023-10-13T01:01:01;17.40;99.90
24226;DHT22;51462;51.422;5.514;2023-10-13T01:03:50;17.40;99.90
24226;DHT22;51462;51.422;5.514;2023-10-13T01:06:21;17.30;99.90
24226;DHT22;51462;51.422;5.514;2023-10-13T01:08:59;17.30;99.90
24226;DHT22;51462;51.422;5.514;2023-10-13T01:11:25;17.30;99.90
24226;DHT22;51462;51.422;5.514;2023-10-13T01:13:55;17.30;99.90
24226;DHT22;51462;51.422;5.514;2023-10-13T01:16:22;17.30;99.90
24226;DHT22;51462;51.422;5.514;2023-10-13T01:18:52;17.30;99.90
24226;DHT22;51462;51.422;5.514;2023-10-13T01:21:18;17.30;99.90
24226;DHT22;51462;51.422;5.514;2023-10-13T01:23:52;17.30;99.90
24226;DHT22;51462;51.422;5.514;2023-10-13T01:26:19;17.30;99.90
24226;DHT22;51462;51.422;5.514;2023-10-13T01:28:57;17.40;99.90
24226;DHT22;51462;51.422;5.514;2023-10-13T01:31:22;17.30;99.90
24226;DHT22;51462;51.422;5.514;2023-10-13T01:34:02;17.30;99.90
24226;DHT22;51462;51.422;5.514;2023-10-13T01:36:28;17.30;99.90
24226;DHT22;51462;51.422;5.514;2023-10-13T01:39:00;17.30;99.90
24226;DHT22;51462;51.422;5.514;2023-10-13T01:41:27;17.30;99.90
24226;DHT22;51462;51.422;5.514;2023-10-13T01:43:52;17.30;99.90
24226;DHT22;51462;51.422;5.514;2023-10-13T01:46:18;17.30;99.90
24226;DHT22;51462;51.422;5.514;2023-10-13T01:48:47;17.30;99.90
24226;DHT22;51462;51.422;5.514;2023-10-13T01:51:13;17.30;99.90
24226;DHT22;51462;51.422;5.514;2023-10-13T01:53:39;17.30;99.90
24226;DHT22;51462;51.422;5.514;2023-10-13T01:56:07;17.30;99.90
24226;DHT22;51462;51.422;5.514;2023-10-13T01:58:40;17.30;99.90
24226;DHT22;51462;51.422;5.514;2023-10-13T02:01:11;17.30;99.90
24226;DHT22;51462;51.422;5.514;2023-10-13T02:03:36;17.30;99.90
24226;DHT22;51462;51.422;5.514;2023-10-13T02:06:08;17.30;99.90
24226;DHT22;51462;51.422;5.514;2023-10-13T02:08:35;17.40;99.90
24226;DHT22;51462;51.422;5.514;2023-10-13T02:11:08;17.30;99.90
24226;DHT22;51462;51.422;5.514;2023-10-13T02:13:35;17.40;99.90
24226;DHT22;51462;51.422;5.514;2023-10-13T02:16:07;17.30;99.90
24226;DHT22;51462;51.422;5.514;2023-10-13T02:18:32;17.40;99.90
24226;DHT22;51462;51.422;5.514;2023-10-13T02:21:09;17.30;99.90
24226;DHT22;51462;51.422;5.514;2023-10-13T02:23:40;17.40;99.90
24226;DHT22;51462;51.422;5.514;2023-10-13T02:26:12;17.40;99.90
24226;DHT22;51462;51.422;5.514;2023-10-13T02:28:42;17.40;99.90
24226;DHT22;51462;51.422;5.514;2023-10-13T02:31:16;17.30;99.90
24226;DHT22;51462;51.422;5.514;2023-10-13T02:33:43;17.40;99.90
24226;DHT22;51462;51.422;5.514;2023-10-13T02:36:10;17.40;99.90
24226;DHT22;51462;51.422;5.514;2023-10-13T02:38:37;17.40;99.90
24226;DHT22;51462;51.422;5.514;2023-10-13T02:41:13;17.50;99.90
24226;DHT22;51462;51.422;5.514;2023-10-13T02:43:50;17.40;99.90
24226;DHT22;51462;51.422;5.514;2023-10-13T02:46:16;17.40;99.90
24226;DHT22;51462;51.422;5.514;2023-10-13T02:48:42;17.40;99.90
24226;DHT22;51462;51.422;5.514;2023-10-13T02:51:12;17.40;99.90
24226;DHT22;51462;51.422;5.514;2023-10-13T02:53:47;17.40;99.90
24226;DHT22;51462;51.422;5.514;2023-10-13T02:56:13;17.40;99.90
24226;DHT22;51462;51.422;5.514;2023-10-13T02:58:40;17.40;99.90
24226;DHT22;51462;51.422;5.514;2023-10-13T03:01:11;17.40;99.90
24226;DHT22;51462;51.422;5.514;2023-10-13T03:03:47;17.30;99.90
24226;DHT22;51462;51.422;5.514;2023-10-13T03:06:16;17.30;99.90
24226;DHT22;51462;51.422;5.514;2023-10-13T03:08:42;17.40;99.90
24226;DHT22;51462;51.422;5.514;2023-10-13T03:11:09;17.40;99.90
24226;DHT22;51462;51.422;5.514;2023-10-13T03:13:35;17.40;99.90
24226;DHT22;51462;51.422;5.514;2023-10-13T03:16:11;17.50;99.90
24226;DHT22;51462;51.422;5.514;2023-10-13T03:18:37;17.40;99.90
24226;DHT22;51462;51.422;5.514;2023-10-13T03:21:03;17.40;99.90
24226;DHT22;51462;51.422;5.514;2023-10-13T03:23:29;17.40;99.90
24226;DHT22;51462;51.422;5.514;2023-10-13T03:26:10;17.50;99.90
24226;DHT22;51462;51.422;5.514;2023-10-13T03:28:36;17.50;99.90
24226;DHT22;51462;51.422;5.514;2023-10-13T03:31:03;17.50;99.90
24226;DHT22;51462;51.422;5.514;2023-10-13T03:33:29;17.40;99.90
24226;DHT22;51462;51.422;5.514;2023-10-13T03:35:58;17.50;99.90
24226;DHT22;51462;51.422;5.514;2023-10-13T03:38:31;17.60;99.90
24226;DHT22;51462;51.422;5.514;2023-10-13T03:41:02;17.50;99.90
24226;DHT22;51462;51.422;5.514;2023-10-13T03:43:38;17.40;99.90
24226;DHT22;51462;51.422;5.514;2023-10-13T03:46:10;17.50;99.90
24226;DHT22;51462;51.422;5.514;2023-10-13T03:48:36;17.50;99.90
24226;DHT22;51462;51.422;5.514;2023-10-13T03:51:17;17.50;99.90
24226;DHT22;51462;51.422;5.514;2023-10-13T03:53:43;17.50;99.90
24226;DHT22;51462;51.422;5.514;2023-10-13T03:56:22;17.50;99.90
24226;DHT22;51462;51.422;5.514;2023-10-13T03:59:05;17.50;99.90
24226;DHT22;51462;51.422;5.514;2023-10-13T04:01:32;17.60;99.90
24226;DHT22;51462;51.422;5.514;2023-10-13T04:04:11;17.60;99.90
24226;DHT22;51462;51.422;5.514;2023-10-13T04:06:38;17.60;99.90
24226;DHT22;51462;51.422;5.514;2023-10-13T04:09:16;17.50;99.90
24226;DHT22;51462;51.422;5.514;2023-10-13T04:12:01;17.60;99.90
24226;DHT22;51462;51.422;5.514;2023-10-13T04:14:31;17.60;99.90
24226;DHT22;51462;51.422;5.514;2023-10-13T04:17:17;17.60;99.90
24226;DHT22;51462;51.422;5.514;2023-10-13T04:19:55;17.50;99.90
24226;DHT22;51462;51.422;5.514;2023-10-13T04:22:43;17.50;99.90
24226;DHT22;51462;51.422;5.514;2023-10-13T04:25:15;17.60;99.90
24226;DHT22;51462;51.422;5.514;2023-10-13T04:28:00;17.60;99.90
24226;DHT22;51462;51.422;5.514;2023-10-13T04:30:48;17.60;99.90
24226;DHT22;51462;51.422;5.514;2023-10-13T04:38:46;17.70;99.90
24226;DHT22;51462;51.422;5.514;2023-10-13T04:41:29;17.70;99.90
24226;DHT22;51462;51.422;5.514;2023-10-13T04:44:08;17.70;99.90
24226;DHT22;51462;51.422;5.514;2023-10-13T04:46:53;17.70;99.90
24226;DHT22;51462;51.422;5.514;2023-10-13T04:49:29;17.60;99.90
24226;DHT22;51462;51.422;5.514;2023-10-13T04:52:02;17.60;99.90
24226;DHT22;51462;51.422;5.514;2023-10-13T04:54:39;17.70;99.90
24226;DHT22;51462;51.422;5.514;2023-10-13T04:59:52;17.80;99.90
24226;DHT22;51462;51.422;5.514;2023-10-13T05:02:40;17.80;99.90
24226;DHT22;51462;51.422;5.514;2023-10-13T05:05:13;17.70;99.90
24226;DHT22;51462;51.422;5.514;2023-10-13T05:07:42;17.80;99.90
24226;DHT22;51462;51.422;5.514;2023-10-13T05:10:27;17.60;99.90
24226;DHT22;51462;51.422;5.514;2023-10-13T05:13:11;17.80;99.90
24226;DHT22;51462;51.422;5.514;2023-10-13T05:15:55;17.80;99.90
24226;DHT22;51462;51.422;5.514;2023-10-13T05:18:39;17.60;99.90
24226;DHT22;51462;51.422;5.514;2023-10-13T05:21:23;17.70;99.90
24226;DHT22;51462;51.422;5.514;2023-10-13T05:24:08;17.70;99.90
24226;DHT22;51462;51.422;5.514;2023-10-13T05:26:52;17.60;99.90
24226;DHT22;51462;51.422;5.514;2023-10-13T05:29:44;17.70;99.90
24226;DHT22;51462;51.422;5.514;2023-10-13T05:32:29;17.70;99.90
24226;DHT22;51462;51.422;5.514;2023-10-13T05:35:13;17.80;99.90
24226;DHT22;51462;51.422;5.514;2023-10-13T05:37:58;17.80;99.90
24226;DHT22;51462;51.422;5.514;2023-10-13T05:41:02;17.70;99.90
24226;DHT22;51462;51.422;5.514;2023-10-13T05:43:47;17.80;99.90
24226;DHT22;51462;51.422;5.514;2023-10-13T05:46:32;17.60;99.90
24226;DHT22;51462;51.422;5.514;2023-10-13T05:49:15;17.70;99.90
24226;DHT22;51462;51.422;5.514;2023-10-13T05:51:40;17.70;99.90
24226;DHT22;51462;51.422;5.514;2023-10-13T05:54:10;17.80;99.90
24226;DHT22;51462;51.422;5.514;2023-10-13T05:56:35;17.80;99.90
24226;DHT22;51462;51.422;5.514;2023-10-13T05:59:19;17.70;99.90
24226;DHT22;51462;51.422;5.514;2023-10-13T06:02:04;17.70;99.90
24226;DHT22;51462;51.422;5.514;2023-10-13T06:04:48;17.80;99.90
24226;DHT22;51462;51.422;5.514;2023-10-13T06:07:32;17.60;99.90
24226;DHT22;51462;51.422;5.514;2023-10-13T06:10:16;17.80;99.90
24226;DHT22;51462;51.422;5.514;2023-10-13T06:13:00;17.80;99.90
24226;DHT22;51462;51.422;5.514;2023-10-13T06:15:44;17.70;99.90
24226;DHT22;51462;51.422;5.514;2023-10-13T06:18:28;17.70;99.90
24226;DHT22;51462;51.422;5.514;2023-10-13T06:21:12;17.70;99.90
24226;DHT22;51462;51.422;5.514;2023-10-13T06:23:56;17.70;99.90
24226;DHT22;51462;51.422;5.514;2023-10-13T06:26:41;17.70;99.90
24226;DHT22;51462;51.422;5.514;2023-10-13T06:29:25;17.80;99.90
24226;DHT22;51462;51.422;5.514;2023-10-13T06:31:51;17.80;99.90
24226;DHT22;51462;51.422;5.514;2023-10-13T06:34:16;17.70;99.90
24226;DHT22;51462;51.422;5.514;2023-10-13T06:36:45;17.70;99.90
24226;DHT22;51462;51.422;5.514;2023-10-13T06:39:12;17.70;99.90
24226;DHT22;51462;51.422;5.514;2023-10-13T06:41:56;17.70;99.90
24226;DHT22;51462;51.422;5.514;2023-10-13T06:44:22;17.80;99.90
24226;DHT22;51462;51.422;5.514;2023-10-13T06:46:47;17.80;99.90
24226;DHT22;51462;51.422;5.514;2023-10-13T06:49:15;17.90;99.90
24226;DHT22;51462;51.422;5.514;2023-10-13T06:51:43;17.80;99.90
24226;DHT22;51462;51.422;5.514;2023-10-13T06:54:11;17.70;99.90
24226;DHT22;51462;51.422;5.514;2023-10-13T06:56:45;17.70;99.90
24226;DHT22;51462;51.422;5.514;2023-10-13T06:59:11;17.70;99.90
24226;DHT22;51462;51.422;5.514;2023-10-13T07:01:40;17.90;99.90
24226;DHT22;51462;51.422;5.514;2023-10-13T07:04:09;17.80;99.90
24226;DHT22;51462;51.422;5.514;2023-10-13T07:06:42;17.80;99.90
24226;DHT22;51462;51.422;5.514;2023-10-13T07:09:14;17.80;99.90
24226;DHT22;51462;51.422;5.514;2023-10-13T07:11:59;17.90;99.90
24226;DHT22;51462;51.422;5.514;2023-10-13T07:14:27;17.80;99.90
24226;DHT22;51462;51.422;5.514;2023-10-13T07:16:57;17.80;99.90
24226;DHT22;51462;51.422;5.514;2023-10-13T07:19:24;17.80;99.90
24226;DHT22;51462;51.422;5.514;2023-10-13T07:21:56;17.80;99.90
24226;DHT22;51462;51.422;5.514;2023-10-13T07:24:26;17.80;99.90
24226;DHT22;51462;51.422;5.514;2023-10-13T07:26:59;17.90;99.90
24226;DHT22;51462;51.422;5.514;2023-10-13T07:29:30;17.90;99.90
24226;DHT22;51462;51.422;5.514;2023-10-13T07:31:56;17.90;99.90
24226;DHT22;51462;51.422;5.514;2023-10-13T07:34:21;17.90;99.90
24226;DHT22;51462;51.422;5.514;2023-10-13T07:36:52;18.00;99.90
24226;DHT22;51462;51.422;5.514;2023-10-13T07:39:18;18.00;99.90
24226;DHT22;51462;51.422;5.514;2023-10-13T07:41:51;18.00;99.90
24226;DHT22;51462;51.422;5.514;2023-10-13T07:44:19;18.10;99.90
24226;DHT22;51462;51.422;5.514;2023-10-13T07:46:52;18.00;99.90
24226;DHT22;51462;51.422;5.514;2023-10-13T07:49:27;18.20;99.90
24226;DHT22;51462;51.422;5.514;2023-10-13T07:52:00;18.10;99.90
24226;DHT22;51462;51.422;5.514;2023-10-13T07:54:45;18.10;99.90
24226;DHT22;51462;51.422;5.514;2023-10-13T07:57:21;18.20;99.90
24226;DHT22;51462;51.422;5.514;2023-10-13T07:59:55;18.10;99.90
24226;DHT22;51462;51.422;5.514;2023-10-13T08:02:32;18.20;99.90
24226;DHT22;51462;51.422;5.514;2023-10-13T08:05:17;18.30;99.90
24226;DHT22;51462;51.422;5.514;2023-10-13T08:08:05;18.30;99.90
24226;DHT22;51462;51.422;5.514;2023-10-13T08:10:40;18.30;99.90
24226;DHT22;51462;51.422;5.514;2023-10-13T08:13:07;18.40;99.90
24226;DHT22;51462;51.422;5.514;2023-10-13T08:15:40;18.30;99.90
24226;DHT22;51462;51.422;5.514;2023-10-13T08:18:12;18.50;99.90
24226;DHT22;51462;51.422;5.514;2023-10-13T08:20:45;18.40;99.90
24226;DHT22;51462;51.422;5.514;2023-10-13T08:23:11;18.30;99.90
24226;DHT22;51462;51.422;5.514;2023-10-13T08:25:40;18.30;99.90
24226;DHT22;51462;51.422;5.514;2023-10-13T08:28:24;18.40;99.90
24226;DHT22;51462;51.422;5.514;2023-10-13T08:31:05;18.40;99.90
24226;DHT22;51462;51.422;5.514;2023-10-13T08:33:50;18.50;99.90
24226;DHT22;51462;51.422;5.514;2023-10-13T08:36:15;18.50;99.90
24226;DHT22;51462;51.422;5.514;2023-10-13T08:38:54;18.80;99.90
24226;DHT22;51462;51.422;5.514;2023-10-13T08:41:21;18.70;99.90
24226;DHT22;51462;51.422;5.514;2023-10-13T08:43:50;18.60;99.90
24226;DHT22;51462;51.422;5.514;2023-10-13T08:46:20;18.70;99.90
24226;DHT22;51462;51.422;5.514;2023-10-13T08:48:58;18.70;99.90
24226;DHT22;51462;51.422;5.514;2023-10-13T08:51:35;18.70;99.90
24226;DHT22;51462;51.422;5.514;2023-10-13T08:54:14;18.70;99.90
24226;DHT22;51462;51.422;5.514;2023-10-13T08:57:00;18.70;99.90
24226;DHT22;51462;51.422;5.514;2023-10-13T08:59:45;18.80;99.90
24226;DHT22;51462;51.422;5.514;2023-10-13T09:02:20;18.90;99.90
24226;DHT22;51462;51.422;5.514;2023-10-13T09:04:48;18.90;99.90
24226;DHT22;51462;51.422;5.514;2023-10-13T09:07:24;18.90;99.90
24226;DHT22;51462;51.422;5.514;2023-10-13T09:09:51;18.80;99.90
24226;DHT22;51462;51.422;5.514;2023-10-13T09:12:26;18.80;99.90
24226;DHT22;51462;51.422;5.514;2023-10-13T09:17:31;19.00;99.90
24226;DHT22;51462;51.422;5.514;2023-10-13T09:20:07;19.00;99.90
24226;DHT22;51462;51.422;5.514;2023-10-13T09:22:49;19.00;99.90
24226;DHT22;51462;51.422;5.514;2023-10-13T09:25:37;19.00;99.90
24226;DHT22;51462;51.422;5.514;2023-10-13T09:28:13;19.00;99.90
24226;DHT22;51462;51.422;5.514;2023-10-13T09:30:51;19.10;99.90
24226;DHT22;51462;51.422;5.514;2023-10-13T09:33:26;19.20;99.90
24226;DHT22;51462;51.422;5.514;2023-10-13T09:36:01;19.10;99.90
24226;DHT22;51462;51.422;5.514;2023-10-13T09:38:32;19.20;99.90
24226;DHT22;51462;51.422;5.514;2023-10-13T09:40:58;19.20;99.90
24226;DHT22;51462;51.422;5.514;2023-10-13T09:43:43;19.20;99.90
24226;DHT22;51462;51.422;5.514;2023-10-13T09:46:10;19.30;99.90
24226;DHT22;51462;51.422;5.514;2023-10-13T09:48:47;19.20;99.90
24226;DHT22;51462;51.422;5.514;2023-10-13T09:51:14;19.20;99.90
24226;DHT22;51462;51.422;5.514;2023-10-13T09:53:42;19.40;99.90
24226;DHT22;51462;51.422;5.514;2023-10-13T09:56:21;19.40;99.90
24226;DHT22;51462;51.422;5.514;2023-10-13T09:59:02;19.40;99.90
24226;DHT22;51462;51.422;5.514;2023-10-13T10:01:39;19.50;99.90
24226;DHT22;51462;51.422;5.514;2023-10-13T10:04:14;19.70;99.90
24226;DHT22;51462;51.422;5.514;2023-10-13T10:06:58;19.60;99.90
24226;DHT22;51462;51.422;5.514;2023-10-13T10:09:31;19.40;99.90
24226;DHT22;51462;51.422;5.514;2023-10-13T10:17:46;19.60;99.90
24226;DHT22;51462;51.422;5.514;2023-10-13T10:20:13;19.60;99.90
24226;DHT22;51462;51.422;5.514;2023-10-13T10:22:56;19.70;99.90
24226;DHT22;51462;51.422;5.514;2023-10-13T10:25:29;19.70;99.90
24226;DHT22;51462;51.422;5.514;2023-10-13T10:28:04;19.80;99.90
24226;DHT22;51462;51.422;5.514;2023-10-13T10:30:32;19.80;99.90
24226;DHT22;51462;51.422;5.514;2023-10-13T10:33:04;20.00;99.90
24226;DHT22;51462;51.422;5.514;2023-10-13T10:35:38;20.10;99.90
24226;DHT22;51462;51.422;5.514;2023-10-13T10:38:08;19.90;99.90
24226;DHT22;51462;51.422;5.514;2023-10-13T10:40:55;19.80;99.90
24226;DHT22;51462;51.422;5.514;2023-10-13T10:43:37;20.00;99.90
24226;DHT22;51462;51.422;5.514;2023-10-13T10:46:13;20.00;99.90
24226;DHT22;51462;51.422;5.514;2023-10-13T10:48:39;20.00;99.90
24226;DHT22;51462;51.422;5.514;2023-10-13T10:51:11;19.90;99.90
24226;DHT22;51462;51.422;5.514;2023-10-13T10:53:47;20.00;99.90
24226;DHT22;51462;51.422;5.514;2023-10-13T10:56:15;20.10;99.90
24226;DHT22;51462;51.422;5.514;2023-10-13T10:58:55;20.10;99.90
24226;DHT22;51462;51.422;5.514;2023-10-13T11:01:22;20.00;99.90
24226;DHT22;51462;51.422;5.514;2023-10-13T11:04:01;20.20;99.90
24226;DHT22;51462;51.422;5.514;2023-10-13T11:06:35;20.10;99.90
24226;DHT22;51462;51.422;5.514;2023-10-13T11:09:08;20.40;99.90
24226;DHT22;51462;51.422;5.514;2023-10-13T11:11:53;20.60;99.90
24226;DHT22;51462;51.422;5.514;2023-10-13T11:14:22;20.30;99.90
24226;DHT22;51462;51.422;5.514;2023-10-13T11:16:49;20.40;99.90
24226;DHT22;51462;51.422;5.514;2023-10-13T11:19:17;20.50;99.90
24226;DHT22;51462;51.422;5.514;2023-10-13T11:21:47;20.50;99.90
24226;DHT22;51462;51.422;5.514;2023-10-13T11:24:13;20.50;99.90
24226;DHT22;51462;51.422;5.514;2023-10-13T11:26:38;20.50;99.90
24226;DHT22;51462;51.422;5.514;2023-10-13T11:29:17;20.70;99.90
24226;DHT22;51462;51.422;5.514;2023-10-13T11:31:48;20.80;99.90
24226;DHT22;51462;51.422;5.514;2023-10-13T11:34:24;21.10;99.90
24226;DHT22;51462;51.422;5.514;2023-10-13T11:36:50;20.90;99.90
24226;DHT22;51462;51.422;5.514;2023-10-13T11:39:16;21.00;99.90
24226;DHT22;51462;51.422;5.514;2023-10-13T11:41:50;20.70;99.90
24226;DHT22;51462;51.422;5.514;2023-10-13T11:44:19;20.90;99.90
24226;DHT22;51462;51.422;5.514;2023-10-13T11:46:45;20.90;99.90
24226;DHT22;51462;51.422;5.514;2023-10-13T11:49:13;21.10;99.90
24226;DHT22;51462;51.422;5.514;2023-10-13T11:51:40;21.10;99.90
24226;DHT22;51462;51.422;5.514;2023-10-13T11:54:15;21.00;99.90
24226;DHT22;51462;51.422;5.514;2023-10-13T11:56:42;21.00;99.90
24226;DHT22;51462;51.422;5.514;2023-10-13T11:59:07;20.90;99.90
24226;DHT22;51462;51.422;5.514;2023-10-13T12:01:45;20.90;99.90
24226;DHT22;51462;51.422;5.514;2023-10-13T12:04:29;20.90;99.90
24226;DHT22;51462;51.422;5.514;2023-10-13T12:06:58;21.10;99.90
24226;DHT22;51462;51.422;5.514;2023-10-13T12:09:40;21.00;99.90
24226;DHT22;51462;51.422;5.514;2023-10-13T12:12:34;21.10;99.90
24226;DHT22;51462;51.422;5.514;2023-10-13T12:15:07;21.60;99.90
24226;DHT22;51462;51.422;5.514;2023-10-13T12:17:50;21.80;99.90
24226;DHT22;51462;51.422;5.514;2023-10-13T12:20:15;22.10;99.90
24226;DHT22;51462;51.422;5.514;2023-10-13T12:22:58;22.00;99.90
24226;DHT22;51462;51.422;5.514;2023-10-13T12:25:27;21.90;99.90
24226;DHT22;51462;51.422;5.514;2023-10-13T12:27:58;22.10;99.90
24226;DHT22;51462;51.422;5.514;2023-10-13T12:30:40;22.10;99.90
24226;DHT22;51462;51.422;5.514;2023-10-13T12:33:21;22.20;99.90
24226;DHT22;51462;51.422;5.514;2023-10-13T12:35:59;22.10;99.90
24226;DHT22;51462;51.422;5.514;2023-10-13T12:38:52;21.90;99.90
24226;DHT22;51462;51.422;5.514;2023-10-13T12:41:33;22.00;99.90
24226;DHT22;51462;51.422;5.514;2023-10-13T12:44:17;22.40;99.90
24226;DHT22;51462;51.422;5.514;2023-10-13T12:47:01;21.80;99.90
24226;DHT22;51462;51.422;5.514;2023-10-13T12:49:45;21.90;99.90
24226;DHT22;51462;51.422;5.514;2023-10-13T12:52:14;22.00;99.90
24226;DHT22;51462;51.422;5.514;2023-10-13T12:54:46;21.90;99.90
24226;DHT22;51462;51.422;5.514;2023-10-13T12:57:30;21.90;99.90
24226;DHT22;51462;51.422;5.514;2023-10-13T12:59:57;21.90;99.90
24226;DHT22;51462;51.422;5.514;2023-10-13T13:02:24;21.80;99.90
24226;DHT22;51462;51.422;5.514;2023-10-13T13:04:56;21.60;99.90
24226;DHT22;51462;51.422;5.514;2023-10-13T13:07:27;21.80;99.90
24226;DHT22;51462;51.422;5.514;2023-10-13T13:09:56;21.90;99.90
24226;DHT22;51462;51.422;5.514;2023-10-13T13:12:24;21.80;99.90
24226;DHT22;51462;51.422;5.514;2023-10-13T13:14:50;22.00;99.90
24226;DHT22;51462;51.422;5.514;2023-10-13T13:17:20;22.20;99.90
24226;DHT22;51462;51.422;5.514;2023-10-13T13:19:46;22.00;99.90
24226;DHT22;51462;51.422;5.514;2023-10-13T13:22:12;22.10;99.90
24226;DHT22;51462;51.422;5.514;2023-10-13T13:24:44;22.00;99.90
24226;DHT22;51462;51.422;5.514;2023-10-13T13:27:11;22.00;99.90
24226;DHT22;51462;51.422;5.514;2023-10-13T13:29:43;21.80;99.90
24226;DHT22;51462;51.422;5.514;2023-10-13T13:32:09;21.70;99.90
24226;DHT22;51462;51.422;5.514;2023-10-13T13:34:43;21.70;99.90
24226;DHT22;51462;51.422;5.514;2023-10-13T13:37:09;21.70;99.90
24226;DHT22;51462;51.422;5.514;2023-10-13T13:39:38;21.80;99.90
24226;DHT22;51462;51.422;5.514;2023-10-13T13:42:11;21.60;99.90
24226;DHT22;51462;51.422;5.514;2023-10-13T13:44:45;21.70;99.90
24226;DHT22;51462;51.422;5.514;2023-10-13T13:47:12;21.70;99.90
24226;DHT22;51462;51.422;5.514;2023-10-13T13:49:41;21.90;99.90
24226;DHT22;51462;51.422;5.514;2023-10-13T13:52:12;21.60;99.90
24226;DHT22;51462;51.422;5.514;2023-10-13T13:54:43;21.80;99.90
24226;DHT22;51462;51.422;5.514;2023-10-13T13:57:09;21.90;99.90
24226;DHT22;51462;51.422;5.514;2023-10-13T13:59:35;21.80;99.90
24226;DHT22;51462;51.422;5.514;2023-10-13T14:02:02;22.00;99.90
24226;DHT22;51462;51.422;5.514;2023-10-13T14:04:45;21.70;99.90
24226;DHT22;51462;51.422;5.514;2023-10-13T14:07:13;21.60;99.90
24226;DHT22;51462;51.422;5.514;2023-10-13T14:09:40;21.70;99.90
24226;DHT22;51462;51.422;5.514;2023-10-13T14:12:09;21.60;99.90
24226;DHT22;51462;51.422;5.514;2023-10-13T14:14:53;21.90;99.90
24226;DHT22;51462;51.422;5.514;2023-10-13T14:17:24;21.60;99.90
24226;DHT22;51462;51.422;5.514;2023-10-13T14:20:00;21.70;99.90
24226;DHT22;51462;51.422;5.514;2023-10-13T14:22:30;21.70;99.90
24226;DHT22;51462;51.422;5.514;2023-10-13T14:25:02;21.70;99.90
24226;DHT22;51462;51.422;5.514;2023-10-13T14:27:37;21.80;99.90
24226;DHT22;51462;51.422;5.514;2023-10-13T14:30:02;21.90;99.90
24226;DHT22;51462;51.422;5.514;2023-10-13T14:32:28;22.10;99.90
24226;DHT22;51462;51.422;5.514;2023-10-13T14:34:54;21.80;99.90
24226;DHT22;51462;51.422;5.514;2023-10-13T14:37:21;21.90;99.90
24226;DHT22;51462;51.422;5.514;2023-10-13T14:39:56;21.70;99.90
24226;DHT22;51462;51.422;5.514;2023-10-13T14:42:26;21.80;99.90
24226;DHT22;51462;51.422;5.514;2023-10-13T14:44:52;22.00;99.90
24226;DHT22;51462;51.422;5.514;2023-10-13T14:47:26;22.40;99.90
24226;DHT22;51462;51.422;5.514;2023-10-13T14:49:55;22.20;99.90
24226;DHT22;51462;51.422;5.514;2023-10-13T14:52:22;22.20;99.90
24226;DHT22;51462;51.422;5.514;2023-10-13T14:54:48;22.20;99.90
24226;DHT22;51462;51.422;5.514;2023-10-13T14:57:20;22.10;99.90
24226;DHT22;51462;51.422;5.514;2023-10-13T14:59:50;22.20;99.90
24226;DHT22;51462;51.422;5.514;2023-10-13T15:02:16;22.00;99.90
24226;DHT22;51462;51.422;5.514;2023-10-13T15:04:41;21.80;99.90
24226;DHT22;51462;51.422;5.514;2023-10-13T15:07:07;21.70;99.90
24226;DHT22;51462;51.422;5.514;2023-10-13T15:09:33;21.60;99.90
24226;DHT22;51462;51.422;5.514;2023-10-13T15:11:59;21.60;99.90
24226;DHT22;51462;51.422;5.514;2023-10-13T15:14:30;21.60;99.90
24226;DHT22;51462;51.422;5.514;2023-10-13T15:16:58;21.60;99.90
24226;DHT22;51462;51.422;5.514;2023-10-13T15:19:25;21.50;99.90
24226;DHT22;51462;51.422;5.514;2023-10-13T15:21:51;21.50;99.90
24226;DHT22;51462;51.422;5.514;2023-10-13T15:24:18;21.60;99.90
24226;DHT22;51462;51.422;5.514;2023-10-13T15:26:46;21.60;99.90
24226;DHT22;51462;51.422;5.514;2023-10-13T15:29:15;21.40;99.90
24226;DHT22;51462;51.422;5.514;2023-10-13T15:31:45;21.40;99.90
24226;DHT22;51462;51.422;5.514;2023-10-13T15:34:31;21.30;99.90
24226;DHT22;51462;51.422;5.514;2023-10-13T15:36:58;21.20;99.90
24226;DHT22;51462;51.422;5.514;2023-10-13T15:39:24;21.10;99.90
24226;DHT22;51462;51.422;5.514;2023-10-13T15:41:53;21.10;99.90
24226;DHT22;51462;51.422;5.514;2023-10-13T15:44:20;21.00;99.90
24226;DHT22;51462;51.422;5.514;2023-10-13T15:46:48;21.00;99.90
24226;DHT22;51462;51.422;5.514;2023-10-13T15:49:15;21.00;99.90
24226;DHT22;51462;51.422;5.514;2023-10-13T15:51:41;21.00;99.90
24226;DHT22;51462;51.422;5.514;2023-10-13T15:54:07;21.00;99.90
24226;DHT22;51462;51.422;5.514;2023-10-13T15:56:44;20.90;99.90
24226;DHT22;51462;51.422;5.514;2023-10-13T15:59:10;20.90;99.90
24226;DHT22;51462;51.422;5.514;2023-10-13T16:01:36;20.80;99.90
24226;DHT22;51462;51.422;5.514;2023-10-13T16:04:04;20.80;99.90
24226;DHT22;51462;51.422;5.514;2023-10-13T16:06:45;20.70;99.90
24226;DHT22;51462;51.422;5.514;2023-10-13T16:09:12;20.70;99.90
24226;DHT22;51462;51.422;5.514;2023-10-13T16:11:42;20.60;99.90
24226;DHT22;51462;51.422;5.514;2023-10-13T16:14:08;20.40;99.90
24226;DHT22;51462;51.422;5.514;2023-10-13T16:16:41;20.40;99.90
24226;DHT22;51462;51.422;5.514;2023-10-13T16:19:10;20.40;99.90
24226;DHT22;51462;51.422;5.514;2023-10-13T16:21:36;20.30;99.90
24226;DHT22;51462;51.422;5.514;2023-10-13T16:24:05;20.30;99.90